Time;durP1;ratioP1;P1;durP2;ratioP2;P2;SDS_P1;SDS_P2;PMS_P1;PMS_P2;Temp;Humidity;BMP_temperature;BMP_pressure;BME280_temperature;BME280_humidity;BME280_pressure;Samples;Min_cycle;Max_cycle;Signal;HPM_P1;HPM_P2
2023/10/14 00:01:26;;;;;;;1.90;0.75;;;15.00;99.90;;;;;;5119358;28;20039;-69
2023/10/14 00:03:52;;;;;;;0.95;0.50;;;14.90;99.90;;;;;;5118698;28;20141;-69
2023/10/14 00:06:18;;;;;;;8.27;1.02;;;14.90;99.90;;;;;;5099972;28;20074;-71
2023/10/14 00:09:11;;;;;;;1.00;0.55;;;15.00;99.90;;;;;;5119207;28;20035;-69
2023/10/14 00:11:35;;;;;;;3.65;0.50;;;15.00;99.90;;;;;;5117097;28;20073;-70
2023/10/14 00:14:14;;;;;;;2.58;0.60;;;14.90;99.90;;;;;;5118529;28;20054;-71
2023/10/14 00:16:42;;;;;;;1.67;0.60;;;14.90;99.90;;;;;;5118131;28;20090;-69
2023/10/14 00:19:11;;;;;;;2.88;0.60;;;14.90;99.90;;;;;;5118510;28;20091;-68
2023/10/14 00:21:37;;;;;;;1.92;0.80;;;14.90;99.90;;;;;;5100421;28;20478;-70
2023/10/14 00:24:06;;;;;;;1.13;0.70;;;15.00;99.90;;;;;;5117674;28;20046;-70
2023/10/14 00:26:32;;;;;;;1.60;0.60;;;15.00;99.90;;;;;;5118874;28;20043;-71
2023/10/14 00:31:50;;;;;;;1.02;0.93;;;15.00;99.90;;;;;;5100483;28;20476;-70
2023/10/14 00:34:22;;;;;;;2.22;0.60;;;14.90;99.90;;;;;;5118625;28;20423;-72
2023/10/14 00:36:49;;;;;;;2.17;0.70;;;14.90;99.90;;;;;;5117424;28;20043;-71
2023/10/14 00:39:16;;;;;;;3.72;0.90;;;14.80;99.90;;;;;;5100405;28;20047;-70
2023/10/14 00:41:44;;;;;;;2.08;0.70;;;14.80;99.90;;;;;;5117589;28;20254;-70
2023/10/14 00:44:13;;;;;;;2.60;0.70;;;14.80;99.90;;;;;;5118577;28;20062;-69
2023/10/14 00:46:48;;;;;;;3.60;0.82;;;14.70;99.90;;;;;;5117835;28;20044;-69
2023/10/14 00:49:18;;;;;;;3.90;0.70;;;14.70;99.90;;;;;;5118304;28;20544;-70
2023/10/14 00:51:49;;;;;;;8.90;1.55;;;14.70;99.90;;;;;;5118105;28;20036;-69
2023/10/14 00:55:24;;;;;;;7.55;0.82;;;14.70;99.90;;;;;;5117508;28;20094;-71
2023/10/14 00:59:49;;;;;;;6.13;1.17;;;14.70;99.90;;;;;;5118132;28;20044;-71
2023/10/14 01:02:19;;;;;;;5.57;0.98;;;14.60;99.90;;;;;;5118021;28;20047;-70
2023/10/14 01:04:53;;;;;;;5.68;1.52;;;14.60;99.90;;;;;;5117912;28;20047;-72
2023/10/14 01:07:21;;;;;;;7.10;1.00;;;14.50;99.90;;;;;;5098629;28;20089;-71
2023/10/14 01:12:21;;;;;;;6.63;1.20;;;14.50;99.90;;;;;;5117510;28;20518;-70
2023/10/14 01:14:58;;;;;;;6.13;1.45;;;14.40;99.90;;;;;;5117219;28;20039;-71
2023/10/14 01:17:29;;;;;;;3.97;1.00;;;14.40;99.90;;;;;;5118534;28;20054;-72
2023/10/14 01:22:42;;;;;;;4.10;1.10;;;14.40;99.90;;;;;;5118351;28;20099;-73
2023/10/14 01:25:12;;;;;;;5.55;1.27;;;14.40;99.90;;;;;;5117718;28;20076;-74
2023/10/14 01:27:45;;;;;;;9.50;1.70;;;14.30;99.90;;;;;;5118107;28;20059;-71
2023/10/14 01:30:19;;;;;;;6.13;1.23;;;14.30;99.90;;;;;;5099887;28;20050;-72
2023/10/14 01:35:31;;;;;;;11.82;1.35;;;14.30;99.90;;;;;;5117710;28;20055;-73
2023/10/14 01:38:01;;;;;;;6.15;1.77;;;14.30;99.90;;;;;;5117163;28;20107;-71
2023/10/14 01:40:36;;;;;;;4.43;1.10;;;14.30;99.90;;;;;;5117551;28;20721;-71
2023/10/14 01:43:06;;;;;;;8.27;1.10;;;14.20;99.90;;;;;;5099471;28;20051;-72
2023/10/14 01:45:50;;;;;;;6.85;1.30;;;14.20;99.90;;;;;;5116321;28;20503;-74
2023/10/14 01:48:21;;;;;;;7.72;2.03;;;14.20;99.90;;;;;;5099439;28;20043;-73
2023/10/14 01:50:54;;;;;;;5.93;1.10;;;14.10;99.90;;;;;;5098748;28;20035;-71
2023/10/14 01:53:24;;;;;;;7.18;1.50;;;14.10;99.90;;;;;;5117518;28;21263;-72
2023/10/14 01:55:54;;;;;;;6.45;1.30;;;14.10;99.90;;;;;;5099492;28;20082;-74
2023/10/14 01:58:32;;;;;;;12.82;1.38;;;14.00;99.90;;;;;;5116796;28;20086;-72
2023/10/14 02:04:02;;;;;;;7.95;1.45;;;14.00;99.90;;;;;;5116866;28;20419;-70
2023/10/14 02:06:30;;;;;;;7.80;1.55;;;14.00;99.90;;;;;;5098780;28;20059;-71
2023/10/14 02:09:04;;;;;;;4.75;1.45;;;13.90;99.90;;;;;;5117522;28;20051;-73
2023/10/14 02:11:33;;;;;;;8.10;1.55;;;13.90;99.90;;;;;;5116493;28;20047;-73
2023/10/14 02:14:06;;;;;;;4.65;1.63;;;13.90;99.90;;;;;;5117307;28;20054;-74
2023/10/14 02:16:42;;;;;;;6.63;1.65;;;13.80;99.90;;;;;;5098764;28;20438;-74
2023/10/14 02:19:21;;;;;;;8.75;2.80;;;13.80;99.90;;;;;;5099185;28;20103;-73
2023/10/14 02:22:02;;;;;;;12.07;1.80;;;13.80;99.90;;;;;;5117856;28;20123;-74
2023/10/14 02:24:28;;;;;;;8.35;1.48;;;13.70;99.90;;;;;;5083183;28;20046;-74
2023/10/14 02:27:04;;;;;;;5.85;1.60;;;13.60;99.90;;;;;;5117661;28;20048;-73
2023/10/14 02:29:32;;;;;;;7.32;1.27;;;13.60;99.90;;;;;;5117091;28;20076;-73
2023/10/14 02:32:00;;;;;;;4.70;1.25;;;13.60;99.90;;;;;;5117109;28;20486;-73
2023/10/14 02:34:27;;;;;;;11.63;1.75;;;13.60;99.90;;;;;;5098986;28;20614;-72
2023/10/14 02:36:53;;;;;;;8.80;2.00;;;13.60;99.90;;;;;;5116608;28;20103;-73
2023/10/14 02:39:27;;;;;;;9.45;1.67;;;13.50;99.90;;;;;;5120328;28;20054;-75
2023/10/14 02:41:59;;;;;;;6.97;1.35;;;13.40;99.90;;;;;;5120115;28;20271;-75
2023/10/14 02:44:32;;;;;;;5.82;1.13;;;13.40;99.90;;;;;;5121475;28;20090;-72
2023/10/14 02:47:08;;;;;;;13.05;1.67;;;13.40;99.90;;;;;;5120213;28;20112;-74
2023/10/14 02:49:39;;;;;;;6.70;1.40;;;13.30;99.90;;;;;;5120059;28;20054;-72
2023/10/14 02:52:11;;;;;;;7.28;1.50;;;13.30;99.90;;;;;;5120830;28;20060;-75
2023/10/14 02:54:44;;;;;;;9.23;1.80;;;13.30;99.90;;;;;;5119580;28;20055;-74
2023/10/14 02:57:13;;;;;;;9.40;1.63;;;13.20;99.90;;;;;;5102574;28;20051;-75
2023/10/14 03:02:16;;;;;;;9.80;1.65;;;13.20;99.90;;;;;;5119407;28;20051;-72
2023/10/14 03:07:31;;;;;;;9.27;1.70;;;13.10;99.90;;;;;;5119590;28;20133;-72
2023/10/14 03:12:40;;;;;;;10.80;2.20;;;13.00;99.90;;;;;;5101577;28;20387;-75
2023/10/14 03:15:19;;;;;;;7.07;1.50;;;13.00;99.90;;;;;;5118673;28;20103;-73
2023/10/14 03:17:56;;;;;;;9.77;1.50;;;13.00;99.90;;;;;;5120217;28;20047;-73
2023/10/14 03:25:49;;;;;;;9.57;1.75;;;12.90;99.90;;;;;;5101726;28;20055;-74
2023/10/14 03:28:19;;;;;;;8.95;1.50;;;12.80;99.90;;;;;;5118719;28;20190;-72
2023/10/14 03:30:54;;;;;;;10.77;1.90;;;12.80;99.90;;;;;;5101067;28;20113;-73
2023/10/14 03:33:22;;;;;;;12.15;2.17;;;12.80;99.90;;;;;;5118720;28;20099;-73
2023/10/14 03:36:00;;;;;;;9.30;1.90;;;12.80;99.90;;;;;;5120035;28;20093;-74
2023/10/14 03:41:20;;;;;;;8.02;1.67;;;12.80;99.90;;;;;;5119154;28;20089;-74
2023/10/14 03:43:58;;;;;;;7.22;1.48;;;12.70;99.90;;;;;;5101984;28;20081;-74
2023/10/14 03:46:40;;;;;;;10.32;1.77;;;12.80;99.90;;;;;;5123292;28;20069;-71
2023/10/14 03:49:06;;;;;;;14.07;1.70;;;12.70;99.90;;;;;;5121621;28;20090;-75
2023/10/14 03:51:32;;;;;;;8.25;1.40;;;12.70;99.90;;;;;;5120044;28;20044;-73
2023/10/14 03:54:09;;;;;;;9.20;2.00;;;12.70;99.90;;;;;;5118401;28;20050;-73
2023/10/14 03:56:36;;;;;;;13.88;2.90;;;12.60;99.90;;;;;;5101091;28;20090;-73
2023/10/14 03:59:03;;;;;;;7.05;1.90;;;12.60;99.90;;;;;;5099945;28;20051;-73
2023/10/14 04:01:43;;;;;;;8.93;1.38;;;12.60;99.90;;;;;;5101389;28;20048;-73
2023/10/14 04:04:27;;;;;;;11.15;1.83;;;12.60;99.90;;;;;;5119030;28;20051;-73
2023/10/14 04:09:36;;;;;;;7.43;1.60;;;12.60;99.90;;;;;;5118106;28;20066;-73
2023/10/14 04:12:07;;;;;;;11.20;2.00;;;12.60;99.90;;;;;;5118134;28;20096;-72
2023/10/14 04:14:36;;;;;;;8.20;1.73;;;12.60;99.90;;;;;;5117994;28;20051;-72
2023/10/14 04:17:30;;;;;;;10.57;1.83;;;12.50;99.90;;;;;;5100838;28;20571;-73
2023/10/14 04:25:19;;;;;;;10.98;1.95;;;12.50;99.90;;;;;;5117917;28;20498;-73
2023/10/14 04:35:23;;;;;;;7.30;1.67;;;12.40;99.90;;;;;;5100320;28;20044;-73
2023/10/14 04:37:53;;;;;;;15.70;2.58;;;12.40;99.90;;;;;;5099521;28;20058;-74
2023/10/14 04:40:37;;;;;;;9.15;1.55;;;12.40;99.90;;;;;;5118586;28;20040;-73
2023/10/14 04:45:45;;;;;;;13.88;2.03;;;12.40;99.90;;;;;;5117075;28;20052;-75
2023/10/14 04:48:15;;;;;;;18.67;1.85;;;12.40;99.90;;;;;;5118276;28;20043;-75
2023/10/14 04:50:41;;;;;;;13.73;1.73;;;12.30;99.90;;;;;;5117834;28;20143;-74
2023/10/14 04:53:14;;;;;;;9.75;1.63;;;12.40;99.90;;;;;;5118640;28;20042;-74
2023/10/14 04:55:44;;;;;;;7.60;1.80;;;12.40;99.90;;;;;;5118432;28;20755;-76
2023/10/14 05:00:43;;;;;;;10.73;1.30;;;12.30;99.90;;;;;;5099349;28;20056;-75
2023/10/14 05:03:14;;;;;;;11.57;2.50;;;12.20;99.90;;;;;;5098808;28;20078;-74
2023/10/14 05:05:45;;;;;;;7.00;1.42;;;12.20;99.90;;;;;;5118126;28;20086;-75
2023/10/14 05:08:15;;;;;;;6.30;1.35;;;12.20;99.90;;;;;;5099675;28;20099;-74
2023/10/14 05:10:42;;;;;;;8.98;1.45;;;12.20;99.90;;;;;;5099183;28;20047;-73
2023/10/14 05:13:13;;;;;;;8.15;1.65;;;12.10;99.90;;;;;;5117515;28;20095;-71
2023/10/14 05:15:41;;;;;;;11.65;2.33;;;12.10;99.90;;;;;;5098575;28;20069;-74
2023/10/14 05:18:14;;;;;;;10.60;1.65;;;12.10;99.90;;;;;;5118096;28;20032;-73
2023/10/14 05:23:30;;;;;;;7.90;2.33;;;12.10;99.90;;;;;;5099531;28;20051;-72
2023/10/14 05:25:59;;;;;;;10.02;1.20;;;12.10;99.90;;;;;;5117634;28;20390;-75
2023/10/14 05:28:30;;;;;;;7.05;2.08;;;12.00;99.90;;;;;;5116902;28;20048;-74
2023/10/14 05:31:08;;;;;;;13.35;1.45;;;12.10;99.90;;;;;;5100516;28;20664;-74
2023/10/14 05:33:37;;;;;;;8.05;1.55;;;12.10;99.90;;;;;;5116987;28;20059;-70
2023/10/14 05:36:05;;;;;;;11.13;1.50;;;12.00;99.90;;;;;;5099025;28;20113;-74
2023/10/14 05:38:31;;;;;;;10.75;1.92;;;12.00;99.90;;;;;;5082239;28;20131;-73
2023/10/14 05:41:00;;;;;;;9.60;1.60;;;12.00;99.90;;;;;;5116415;28;20507;-74
2023/10/14 05:43:26;;;;;;;5.55;1.77;;;12.00;99.90;;;;;;5082437;28;20052;-73
2023/10/14 05:45:53;;;;;;;7.80;1.17;;;11.90;99.90;;;;;;5081230;28;20553;-73
2023/10/14 05:48:30;;;;;;;6.78;1.50;;;11.90;99.90;;;;;;5099296;28;20044;-73
2023/10/14 05:50:56;;;;;;;7.55;1.55;;;11.90;99.90;;;;;;5099178;28;20055;-75
2023/10/14 05:53:25;;;;;;;8.00;1.65;;;11.90;99.90;;;;;;5082057;28;20047;-74
2023/10/14 05:55:59;;;;;;;11.32;2.20;;;11.90;99.90;;;;;;5098812;28;20075;-73
2023/10/14 05:58:28;;;;;;;9.02;2.17;;;11.90;99.90;;;;;;5098009;28;20123;-72
2023/10/14 06:00:55;;;;;;;13.05;1.85;;;11.80;99.90;;;;;;5099056;28;20078;-73
2023/10/14 06:03:21;;;;;;;7.68;1.73;;;11.80;99.90;;;;;;5098474;28;20044;-73
2023/10/14 06:05:46;;;;;;;6.93;1.67;;;11.80;99.90;;;;;;5117652;28;20178;-74
2023/10/14 06:08:21;;;;;;;11.63;2.03;;;11.80;99.90;;;;;;5098821;28;20036;-72
2023/10/14 06:10:46;;;;;;;10.52;1.90;;;11.70;99.90;;;;;;5116404;28;20047;-74
2023/10/14 06:13:14;;;;;;;10.40;2.30;;;11.70;99.90;;;;;;5100498;28;20048;-73
2023/10/14 06:15:41;;;;;;;12.02;1.77;;;11.70;99.90;;;;;;5120233;28;20503;-73
2023/10/14 06:18:13;;;;;;;10.15;1.92;;;11.60;99.90;;;;;;5103597;28;20051;-73
2023/10/14 06:20:41;;;;;;;6.03;1.70;;;11.60;99.90;;;;;;5121106;28;20046;-72
2023/10/14 06:23:08;;;;;;;12.13;2.15;;;11.60;99.90;;;;;;5120041;28;20516;-72
2023/10/14 06:25:36;;;;;;;7.18;1.50;;;11.80;99.90;;;;;;5121539;28;20048;-72
2023/10/14 06:28:03;;;;;;;10.48;1.63;;;11.70;99.90;;;;;;5101829;28;20052;-71
2023/10/14 06:30:28;;;;;;;13.63;1.70;;;11.70;99.90;;;;;;5121842;28;20039;-72
2023/10/14 06:33:04;;;;;;;12.57;2.50;;;11.70;99.90;;;;;;5120659;28;20058;-71
2023/10/14 06:35:32;;;;;;;9.23;1.98;;;11.70;99.90;;;;;;5103539;28;20040;-72
2023/10/14 06:37:58;;;;;;;15.00;2.63;;;11.70;99.90;;;;;;5103151;28;20079;-72
2023/10/14 06:40:24;;;;;;;16.05;1.90;;;11.70;99.90;;;;;;5123051;28;20059;-73
2023/10/14 06:42:53;;;;;;;7.50;2.03;;;11.70;99.90;;;;;;5121766;28;20119;-72
2023/10/14 06:45:21;;;;;;;9.48;1.80;;;11.70;99.90;;;;;;5101572;28;20062;-73
2023/10/14 06:47:56;;;;;;;15.70;3.75;;;11.70;99.90;;;;;;5121103;28;20059;-71
2023/10/14 06:50:25;;;;;;;8.90;1.98;;;11.70;99.90;;;;;;5084743;28;20043;-73
2023/10/14 06:53:01;;;;;;;8.30;2.10;;;11.70;99.90;;;;;;5120662;28;20058;-73
2023/10/14 06:55:37;;;;;;;7.80;1.52;;;11.80;99.90;;;;;;5102527;28;20056;-72
2023/10/14 06:58:18;;;;;;;11.38;1.92;;;11.80;99.90;;;;;;5101347;28;20048;-72
2023/10/14 07:00:45;;;;;;;13.18;2.13;;;11.80;99.90;;;;;;5102221;28;20043;-71
2023/10/14 07:03:14;;;;;;;8.40;1.75;;;11.80;99.90;;;;;;5080572;28;20043;-73
2023/10/14 07:05:56;;;;;;;12.20;1.65;;;11.80;99.90;;;;;;5102462;28;20064;-72
2023/10/14 07:08:27;;;;;;;9.07;1.55;;;11.80;99.90;;;;;;5120114;28;20066;-73
2023/10/14 07:10:55;;;;;;;17.30;2.20;;;11.90;99.90;;;;;;5119289;28;20123;-73
2023/10/14 07:13:22;;;;;;;4.97;1.77;;;11.90;99.90;;;;;;5101808;28;20048;-73
2023/10/14 07:15:49;;;;;;;11.00;2.15;;;12.00;99.90;;;;;;5118872;28;20043;-71
2023/10/14 07:18:22;;;;;;;10.77;1.85;;;12.00;99.90;;;;;;5101854;28;20079;-71
2023/10/14 07:20:59;;;;;;;9.10;2.30;;;12.00;99.90;;;;;;5101452;28;20081;-73
2023/10/14 07:23:26;;;;;;;12.82;2.10;;;12.00;99.90;;;;;;5100481;28;20543;-71
2023/10/14 07:25:52;;;;;;;7.05;2.20;;;12.10;99.90;;;;;;5119751;28;20493;-73
2023/10/14 07:28:18;;;;;;;6.22;1.80;;;12.10;99.90;;;;;;5118644;28;20039;-71
2023/10/14 07:30:48;;;;;;;14.20;2.33;;;12.10;99.90;;;;;;5101449;28;20498;-74
2023/10/14 07:33:16;;;;;;;7.68;1.63;;;12.20;99.90;;;;;;5118656;28;20107;-73
2023/10/14 07:35:42;;;;;;;11.85;2.20;;;12.20;99.90;;;;;;5119457;28;20410;-74
2023/10/14 07:38:09;;;;;;;18.70;2.80;;;12.20;99.90;;;;;;5100913;28;20143;-72
2023/10/14 07:40:34;;;;;;;19.15;3.22;;;12.20;99.90;;;;;;5084001;28;20055;-72
2023/10/14 07:43:07;;;;;;;6.47;1.55;;;12.20;99.90;;;;;;5101391;28;20055;-72
2023/10/14 07:45:35;;;;;;;;;;;12.30;99.90;;;;;;5100496;28;20152;-73
2023/10/14 07:48:11;;;;;;;8.77;1.50;;;12.30;99.90;;;;;;5119421;28;19919;-73
2023/10/14 07:50:48;;;;;;;11.63;2.17;;;12.30;99.90;;;;;;5099949;28;20077;-73
2023/10/14 07:53:17;;;;;;;12.60;2.03;;;12.30;99.90;;;;;;5100461;28;20048;-73
2023/10/14 07:55:47;;;;;;;11.50;1.98;;;12.30;99.90;;;;;;5119286;28;20048;-74
2023/10/14 07:58:14;;;;;;;13.50;2.40;;;12.30;99.90;;;;;;5117790;28;20048;-72
2023/10/14 08:00:50;;;;;;;10.45;1.85;;;12.30;99.90;;;;;;5100615;28;20609;-72
2023/10/14 08:03:18;;;;;;;9.00;2.42;;;12.40;99.90;;;;;;5099431;28;20043;-72
2023/10/14 08:05:49;;;;;;;9.63;2.25;;;12.40;99.90;;;;;;5100137;28;20047;-72
2023/10/14 08:08:16;;;;;;;7.13;2.03;;;12.40;99.90;;;;;;5100501;28;20032;-73
2023/10/14 08:10:43;;;;;;;9.02;1.95;;;12.50;99.90;;;;;;5118239;28;20051;-73
2023/10/14 08:13:14;;;;;;;13.07;2.30;;;12.50;99.90;;;;;;5100332;28;20059;-72
2023/10/14 08:15:41;;;;;;;10.97;2.40;;;12.50;99.90;;;;;;5098894;28;20055;-72
2023/10/14 08:18:07;;;;;;;14.32;2.08;;;12.50;99.90;;;;;;5118523;28;20085;-73
2023/10/14 08:20:37;;;;;;;9.55;2.15;;;12.60;99.90;;;;;;5110986;28;20053;-73
2023/10/14 08:23:09;;;;;;;13.02;2.17;;;12.60;99.90;;;;;;5118420;28;20430;-69
2023/10/14 08:25:39;;;;;;;11.60;2.10;;;12.60;99.90;;;;;;5118397;28;20496;-70
2023/10/14 08:28:11;;;;;;;10.15;2.85;;;12.70;99.90;;;;;;5098869;28;20044;-71
2023/10/14 08:30:46;;;;;;;11.10;2.22;;;12.70;99.90;;;;;;5118527;28;20052;-70
2023/10/14 08:33:13;;;;;;;13.18;2.55;;;12.70;99.90;;;;;;5099255;28;20062;-71
2023/10/14 08:35:42;;;;;;;14.45;2.47;;;12.80;99.90;;;;;;5117058;28;20044;-72
2023/10/14 08:38:14;;;;;;;9.45;2.10;;;12.80;99.90;;;;;;5118007;28;20452;-70
2023/10/14 08:40:49;;;;;;;14.90;3.17;;;12.80;99.90;;;;;;5117373;28;20067;-70
2023/10/14 08:43:22;;;;;;;10.27;2.47;;;12.80;99.90;;;;;;5099822;28;20051;-71
2023/10/14 08:45:53;;;;;;;16.85;2.13;;;12.80;99.90;;;;;;5082035;28;20047;-72
2023/10/14 08:48:23;;;;;;;9.18;2.20;;;12.90;99.90;;;;;;5117947;28;20067;-71
2023/10/14 08:50:55;;;;;;;17.23;2.50;;;12.90;99.90;;;;;;5117814;28;20052;-71
2023/10/14 08:53:22;;;;;;;9.43;2.20;;;13.00;99.90;;;;;;5099576;28;20048;-72
2023/10/14 08:55:49;;;;;;;12.10;1.67;;;12.90;99.90;;;;;;5118230;28;20130;-70
2023/10/14 08:58:15;;;;;;;13.40;2.05;;;12.90;99.90;;;;;;5116859;28;20090;-68
2023/10/14 09:00:43;;;;;;;15.05;2.05;;;13.00;99.90;;;;;;5117461;28;20048;-70
2023/10/14 09:03:10;;;;;;;12.15;1.98;;;13.00;99.90;;;;;;5116246;28;20100;-69
2023/10/14 09:05:46;;;;;;;13.50;2.40;;;13.10;99.90;;;;;;5117987;28;20043;-70
2023/10/14 09:08:17;;;;;;;13.95;2.28;;;13.20;99.90;;;;;;5116842;28;20052;-70
2023/10/14 09:10:44;;;;;;;10.32;1.95;;;13.20;99.90;;;;;;5117316;28;20422;-70
2023/10/14 09:13:11;;;;;;;19.73;3.45;;;13.20;99.90;;;;;;5118134;28;20039;-71
2023/10/14 09:15:43;;;;;;;13.02;2.30;;;13.10;99.90;;;;;;5116736;28;20066;-70
2023/10/14 09:18:16;;;;;;;12.18;3.15;;;13.10;99.90;;;;;;5117535;28;20040;-69
2023/10/14 09:20:43;;;;;;;12.82;1.88;;;13.10;99.90;;;;;;5117838;28;20040;-70
2023/10/14 09:23:44;;;;;;;10.32;2.42;;;13.10;99.90;;;;;;5117914;28;20050;-70
2023/10/14 09:26:08;;;;;;;10.32;1.80;;;13.00;99.90;;;;;;5113670;28;20095;-71
2023/10/14 09:28:36;;;;;;;11.20;1.58;;;13.10;99.90;;;;;;5088028;28;20058;-70
2023/10/14 09:31:07;;;;;;;12.57;2.53;;;13.00;99.90;;;;;;5088661;28;20051;-71
2023/10/14 09:33:42;;;;;;;9.03;1.80;;;13.00;99.90;;;;;;5105559;28;20464;-70
2023/10/14 09:36:18;;;;;;;12.80;1.98;;;12.90;99.90;;;;;;5079490;28;20071;-71
2023/10/14 09:38:51;;;;;;;11.80;2.15;;;13.00;99.90;;;;;;5079370;28;20119;-69
2023/10/14 09:41:17;;;;;;;12.05;1.73;;;13.00;99.90;;;;;;5078296;28;20051;-71
2023/10/14 09:43:48;;;;;;;14.25;2.17;;;13.00;99.90;;;;;;5097219;28;20067;-70
2023/10/14 09:46:17;;;;;;;8.18;1.65;;;13.00;99.90;;;;;;5095983;28;20067;-71
2023/10/14 09:48:46;;;;;;;8.07;1.40;;;13.00;99.90;;;;;;5101211;28;20044;-70
2023/10/14 09:51:16;;;;;;;15.75;1.80;;;13.00;99.90;;;;;;5101766;28;20442;-70
2023/10/14 09:53:46;;;;;;;9.77;2.33;;;13.10;99.90;;;;;;5100391;28;20048;-70
2023/10/14 09:56:12;;;;;;;15.25;1.95;;;13.00;99.90;;;;;;5101390;28;20055;-70
2023/10/14 09:58:43;;;;;;;16.95;2.20;;;13.10;99.90;;;;;;5100472;28;20040;-69
2023/10/14 10:01:14;;;;;;;8.10;1.80;;;13.10;99.90;;;;;;5100940;28;20116;-71
2023/10/14 10:04:05;;;;;;;6.03;1.40;;;13.10;99.90;;;;;;5100956;28;20079;-70
2023/10/14 10:06:35;;;;;;;9.02;2.20;;;13.10;99.90;;;;;;5081910;28;20052;-70
2023/10/14 10:09:22;;;;;;;15.35;2.13;;;13.10;99.90;;;;;;5101114;28;20050;-71
2023/10/14 10:11:51;;;;;;;9.43;2.00;;;13.10;99.90;;;;;;5099969;28;20047;-71
2023/10/14 10:14:19;;;;;;;12.80;2.13;;;13.10;99.90;;;;;;5100623;28;20036;-69
2023/10/14 10:16:50;;;;;;;13.65;1.88;;;13.20;99.90;;;;;;5082027;28;20052;-70
2023/10/14 10:19:16;;;;;;;12.38;1.90;;;13.20;99.90;;;;;;5081678;28;21087;-69
2023/10/14 10:22:12;;;;;;;5.15;1.25;;;13.10;99.90;;;;;;5065986;28;20059;-70
2023/10/14 10:24:41;;;;;;;7.60;1.60;;;13.10;99.90;;;;;;5099937;28;20044;-70
2023/10/14 10:27:10;;;;;;;11.27;2.13;;;13.10;99.90;;;;;;5100787;28;20063;-68
2023/10/14 10:29:57;;;;;;;9.55;2.03;;;13.10;99.90;;;;;;5081323;28;20063;-70
2023/10/14 10:32:30;;;;;;;6.72;1.52;;;13.10;99.90;;;;;;5081697;28;20052;-68
2023/10/14 10:35:13;;;;;;;3.35;1.08;;;13.00;99.90;;;;;;5082450;28;20083;-70
2023/10/14 10:37:55;;;;;;;9.07;1.30;;;13.00;99.90;;;;;;5081610;28;20056;-70
2023/10/14 10:40:28;;;;;;;10.07;1.17;;;12.90;99.90;;;;;;5100158;28;20483;-70
2023/10/14 10:43:05;;;;;;;6.13;1.33;;;12.90;99.90;;;;;;5082278;28;20062;-71
2023/10/14 10:45:36;;;;;;;5.78;1.33;;;12.90;99.90;;;;;;5098782;28;20064;-70
2023/10/14 10:48:07;;;;;;;3.67;1.38;;;12.90;99.90;;;;;;5082114;28;20048;-70
2023/10/14 10:50:40;;;;;;;5.78;1.55;;;12.80;99.90;;;;;;5081353;28;20095;-71
2023/10/14 10:53:10;;;;;;;6.38;1.10;;;12.90;99.90;;;;;;5100018;28;20105;-70
2023/10/14 10:55:40;;;;;;;7.50;1.40;;;13.00;99.90;;;;;;5100336;28;20628;-70
2023/10/14 10:58:08;;;;;;;10.50;1.55;;;13.00;99.90;;;;;;5098750;28;20048;-70
2023/10/14 11:00:34;;;;;;;8.90;1.40;;;13.00;99.90;;;;;;5080908;28;20474;-69
2023/10/14 11:03:02;;;;;;;6.43;1.15;;;13.10;99.90;;;;;;5080761;28;20051;-70
2023/10/14 11:05:31;;;;;;;8.43;1.38;;;13.00;99.90;;;;;;5081930;28;20127;-75
2023/10/14 11:07:57;;;;;;;5.72;1.30;;;13.10;99.90;;;;;;5077923;28;20056;-71
2023/10/14 11:10:25;;;;;;;8.32;1.50;;;13.10;99.90;;;;;;5086568;28;20032;-69
2023/10/14 11:12:54;;;;;;;8.98;1.85;;;13.20;99.90;;;;;;5098741;28;20050;-71
2023/10/14 11:15:25;;;;;;;17.10;1.95;;;13.10;99.90;;;;;;5098398;28;20052;-70
2023/10/14 11:17:58;;;;;;;6.80;1.63;;;13.20;99.90;;;;;;5099849;28;20054;-70
2023/10/14 11:20:43;;;;;;;11.07;2.28;;;13.20;99.90;;;;;;5099132;28;20494;-70
2023/10/14 11:23:13;;;;;;;9.13;1.50;;;13.10;99.90;;;;;;5099727;28;20052;-70
2023/10/14 11:25:47;;;;;;;10.18;1.65;;;13.10;99.90;;;;;;5099920;28;20372;-70
2023/10/14 11:28:14;;;;;;;6.55;1.38;;;13.10;99.90;;;;;;5098424;28;20790;-70
2023/10/14 11:30:55;;;;;;;10.65;2.03;;;13.10;99.90;;;;;;5099668;28;20040;-69
2023/10/14 11:33:23;;;;;;;8.40;1.58;;;13.10;99.90;;;;;;5098691;28;20051;-70
2023/10/14 11:35:52;;;;;;;8.25;1.48;;;13.10;99.90;;;;;;5099619;28;20411;-70
2023/10/14 11:38:18;;;;;;;4.38;1.52;;;13.10;99.90;;;;;;5092891;28;20044;-70
2023/10/14 11:40:47;;;;;;;9.85;1.33;;;13.10;99.90;;;;;;5097280;28;20496;-70
2023/10/14 11:43:12;;;;;;;8.07;1.95;;;13.20;99.90;;;;;;5093737;28;20044;-72
2023/10/14 11:45:45;;;;;;;5.43;1.02;;;13.20;99.90;;;;;;5097800;28;20416;-69
2023/10/14 11:48:27;;;;;;;5.22;1.20;;;13.30;99.90;;;;;;5099003;28;20040;-73
2023/10/14 11:51:02;;;;;;;8.25;1.65;;;13.40;99.90;;;;;;5098457;28;20068;-72
2023/10/14 11:53:29;;;;;;;11.43;1.40;;;13.40;99.90;;;;;;5098294;28;20044;-72
2023/10/14 11:56:02;;;;;;;8.13;1.20;;;13.40;99.90;;;;;;5098934;28;20043;-73
2023/10/14 11:58:33;;;;;;;7.70;1.45;;;13.50;99.90;;;;;;5096833;28;20048;-72
2023/10/14 12:00:59;;;;;;;7.95;1.60;;;13.50;99.90;;;;;;5096823;28;20409;-74
2023/10/14 12:03:26;;;;;;;5.25;1.42;;;13.60;99.90;;;;;;5096349;28;20473;-72
2023/10/14 12:05:57;;;;;;;5.90;1.15;;;13.70;99.90;;;;;;5100969;28;20058;-74
2023/10/14 12:08:30;;;;;;;7.43;1.15;;;13.70;99.90;;;;;;5118830;28;20047;-74
2023/10/14 12:10:59;;;;;;;9.65;1.60;;;13.70;99.90;;;;;;5116752;28;20051;-74
2023/10/14 12:13:26;;;;;;;7.03;1.80;;;13.80;99.90;;;;;;5119855;28;20051;-72
2023/10/14 12:15:51;;;;;;;6.93;1.40;;;13.70;99.90;;;;;;5119429;28;20052;-73
2023/10/14 12:18:18;;;;;;;7.30;1.50;;;13.70;99.90;;;;;;5118276;28;20071;-71
2023/10/14 12:20:47;;;;;;;7.30;1.52;;;13.70;99.90;;;;;;5117754;28;20044;-73
2023/10/14 12:23:14;;;;;;;7.45;1.35;;;13.70;99.90;;;;;;5099076;28;20038;-74
2023/10/14 12:25:40;;;;;;;8.55;1.48;;;13.80;99.90;;;;;;5099165;28;20047;-74
2023/10/14 12:28:06;;;;;;;7.90;1.42;;;13.80;99.90;;;;;;5116672;28;20052;-71
2023/10/14 12:30:39;;;;;;;4.35;1.10;;;13.80;99.90;;;;;;5118013;28;20074;-74
2023/10/14 12:33:07;;;;;;;8.05;1.77;;;13.80;99.90;;;;;;5116706;28;20047;-74
2023/10/14 12:35:33;;;;;;;5.85;1.00;;;13.80;99.90;;;;;;5117829;28;20085;-72
2023/10/14 12:38:00;;;;;;;4.63;1.30;;;13.80;99.90;;;;;;5098951;28;20055;-72
2023/10/14 12:40:33;;;;;;;13.40;2.05;;;13.80;99.90;;;;;;5116597;28;20108;-72
2023/10/14 12:43:01;;;;;;;8.20;1.20;;;13.70;99.90;;;;;;5116664;28;20058;-72
2023/10/14 12:45:27;;;;;;;10.90;1.90;;;13.70;99.90;;;;;;5116132;28;20047;-72
2023/10/14 12:47:56;;;;;;;5.70;1.52;;;13.70;99.90;;;;;;5098633;28;20051;-71
2023/10/14 12:50:22;;;;;;;6.80;1.23;;;13.60;99.90;;;;;;5116510;28;20039;-73
2023/10/14 12:53:00;;;;;;;4.57;1.40;;;13.50;99.90;;;;;;5117676;28;20118;-69
2023/10/14 12:55:30;;;;;;;10.43;1.58;;;13.60;99.90;;;;;;5116922;28;20077;-73
2023/10/14 12:58:02;;;;;;;6.70;1.30;;;13.50;99.90;;;;;;5116265;28;20095;-71
2023/10/14 13:00:31;;;;;;;5.88;1.85;;;13.50;99.90;;;;;;5117243;28;20077;-72
2023/10/14 13:02:58;;;;;;;8.93;2.03;;;13.40;99.90;;;;;;5097300;28;20039;-71
2023/10/14 13:05:28;;;;;;;8.57;1.73;;;13.30;99.90;;;;;;5098858;28;20139;-79
2023/10/14 13:07:55;;;;;;;11.00;1.38;;;13.40;99.90;;;;;;5098213;28;20508;-76
2023/10/14 13:10:22;;;;;;;7.25;1.30;;;13.30;99.90;;;;;;5116442;28;20059;-77
2023/10/14 13:12:53;;;;;;;9.65;2.05;;;13.30;99.90;;;;;;5117482;28;20040;-75
2023/10/14 13:15:30;;;;;;;13.45;1.55;;;13.20;99.90;;;;;;5080468;28;20044;-77
2023/10/14 13:17:58;;;;;;;9.70;1.40;;;13.20;99.90;;;;;;5117278;28;20043;-76
2023/10/14 13:20:27;;;;;;;10.13;1.67;;;13.20;99.90;;;;;;5116114;28;20056;-75
2023/10/14 13:22:58;;;;;;;12.77;2.22;;;13.20;99.90;;;;;;5116877;28;20062;-77
2023/10/14 13:25:25;;;;;;;7.05;1.73;;;13.20;99.90;;;;;;5116824;28;20092;-71
2023/10/14 13:27:52;;;;;;;8.13;1.58;;;13.20;99.90;;;;;;5115949;28;20118;-72
2023/10/14 13:30:23;;;;;;;7.30;1.50;;;13.20;99.90;;;;;;5116850;28;20589;-75
2023/10/14 13:32:57;;;;;;;7.20;1.47;;;13.10;99.90;;;;;;5080378;28;20074;-72
2023/10/14 13:35:23;;;;;;;8.40;1.42;;;13.10;99.90;;;;;;5116927;28;20760;-72
2023/10/14 13:37:49;;;;;;;7.53;1.88;;;13.10;99.90;;;;;;5116402;28;20045;-69
2023/10/14 13:40:21;;;;;;;8.43;1.80;;;13.10;99.90;;;;;;5115961;28;20051;-78
2023/10/14 13:42:51;;;;;;;9.43;2.35;;;13.00;99.90;;;;;;5098789;28;20506;-77
2023/10/14 13:45:18;;;;;;;9.90;1.67;;;13.10;99.90;;;;;;5097358;28;20055;-79
2023/10/14 13:47:45;;;;;;;6.20;1.40;;;13.00;99.90;;;;;;5098105;28;20507;-80
2023/10/14 13:50:18;;;;;;;11.63;2.83;;;13.10;99.90;;;;;;5097566;28;20105;-79
2023/10/14 13:52:51;;;;;;;;;;;13.10;99.90;;;;;;5098590;28;20044;-79
2023/10/14 13:55:20;;;;;;;10.05;1.63;;;12.90;99.90;;;;;;5116715;28;19923;-79
2023/10/14 13:57:49;;;;;;;11.00;2.00;;;12.90;99.90;;;;;;5097422;28;20071;-77